Time;durP1;ratioP1;P1;durP2;ratioP2;P2;SDS_P1;SDS_P2;PMS_P1;PMS_P2;Temp;Humidity;BMP_temperature;BMP_pressure;BME280_temperature;BME280_humidity;BME280_pressure;Samples;Min_cycle;Max_cycle;Signal;HPM_P1;HPM_P2
2023/01/06 00:01:16;;;;;;;;;;;;;;;14.99;58.78;100887.72;4954686;28;6800;-73
2023/01/06 00:03:43;;;;;;;;;;;;;;;14.98;59.03;100885.97;4984874;28;7176;-74
2023/01/06 00:06:11;;;;;;;;;;;;;;;14.97;58.22;100884.22;4960611;28;6793;-73
2023/01/06 00:08:39;;;;;;;;;;;;;;;14.97;58.39;100885.06;4956657;28;6805;-73
2023/01/06 00:11:07;;;;;;;;;;;;;;;14.96;58.88;100879.84;4973866;28;7030;-73
2023/01/06 00:13:33;;;;;;;;;;;;;;;14.96;58.27;100885.00;4957110;28;7521;-73
2023/01/06 00:16:04;;;;;;;;;;;;;;;14.97;58.56;100884.22;4986966;28;6768;-73
2023/01/06 00:18:30;;;;;;;;;;;;;;;14.99;58.34;100885.16;4991087;28;6919;-73
2023/01/06 00:20:58;;;;;;;;;;;;;;;14.97;59.36;100874.75;4982105;28;7038;-73
2023/01/06 00:23:24;;;;;;;;;;;;;;;14.97;58.96;100874.75;4963844;28;7114;-73
2023/01/06 00:25:50;;;;;;;;;;;;;;;14.96;58.89;100873.00;4965132;28;6780;-74
2023/01/06 00:28:16;;;;;;;;;;;;;;;14.96;59.17;100870.41;4987798;28;6796;-73
2023/01/06 00:30:42;;;;;;;;;;;;;;;14.98;58.93;100873.06;4992980;28;6780;-73
2023/01/06 00:33:07;;;;;;;;;;;;;;;14.98;58.62;100865.31;4983264;28;6776;-73
2023/01/06 00:35:33;;;;;;;;;;;;;;;14.96;59.11;100862.69;4991808;28;7021;-74
2023/01/06 00:37:59;;;;;;;;;;;;;;;14.96;58.71;100866.94;4966744;28;6772;-74
2023/01/06 00:40:24;;;;;;;;;;;;;;;14.97;58.25;100854.09;4961701;28;8123;-73
2023/01/06 00:42:50;;;;;;;;;;;;;;;14.94;58.16;100853.09;4966135;28;6772;-73
2023/01/06 00:45:16;;;;;;;;;;;;;;;14.95;58.85;100852.28;4960716;28;6784;-74
2023/01/06 00:47:41;;;;;;;;;;;;;;;14.95;58.35;100854.88;4960445;28;7134;-73
2023/01/06 00:50:08;;;;;;;;;;;;;;;14.96;58.31;100846.28;4977788;28;6843;-74
2023/01/06 00:52:33;;;;;;;;;;;;;;;14.93;58.45;100844.50;4960396;28;6789;-74
2023/01/06 00:54:59;;;;;;;;;;;;;;;14.94;58.08;100842.78;4963688;28;7331;-73
2023/01/06 00:57:25;;;;;;;;;;;;;;;14.92;58.24;100840.16;4958267;28;6780;-73
2023/01/06 00:59:51;;;;;;;;;;;;;;;14.91;58.67;100837.53;4984291;28;6776;-73
2023/01/06 01:02:17;;;;;;;;;;;;;;;14.91;58.65;100833.22;4962820;28;6852;-73
2023/01/06 01:04:43;;;;;;;;;;;;;;;14.91;58.47;100835.81;4964696;28;6796;-73
2023/01/06 01:07:09;;;;;;;;;;;;;;;14.94;57.97;100837.63;4982472;28;8269;-74
2023/01/06 01:09:35;;;;;;;;;;;;;;;14.92;57.85;100837.59;4962486;28;6901;-74
2023/01/06 01:12:13;;;;;;;;;;;;;;;14.92;57.96;100829.84;4978444;28;7002;-74
2023/01/06 01:14:51;;;;;;;;;;;;;;;14.95;58.62;100840.28;4959407;28;6796;-73
2023/01/06 01:17:27;;;;;;;;;;;;;;;14.94;58.59;100833.34;4979923;28;6796;-74
2023/01/06 01:19:56;;;;;;;;;;;;;;;14.95;57.85;100835.13;4957855;28;6804;-73
2023/01/06 01:22:25;;;;;;;;;;;;;;;14.96;58.35;100836.88;4961784;28;6863;-73
2023/01/06 01:24:51;;;;;;;;;;;;;;;14.96;58.18;100830.81;4966025;28;6812;-73
2023/01/06 01:27:17;;;;;;;;;;;;;;;14.98;57.69;100842.09;4976868;28;7045;-73
2023/01/06 01:29:43;;;;;;;;;;;;;;;15.01;57.38;100834.47;4963193;28;7790;-73
2023/01/06 01:32:09;;;;;;;;;;;;;;;15.04;57.00;100842.31;4964062;28;6780;-74
2023/01/06 01:34:35;;;;;;;;;;;;;;;15.05;56.85;100836.31;4960487;28;6808;-74
2023/01/06 01:37:00;;;;;;;;;;;;;;;15.06;56.72;100843.22;4963161;28;6865;-74
2023/01/06 01:39:29;;;;;;;;;;;;;;;15.08;56.99;100841.63;4958743;28;7674;-73
2023/01/06 01:41:57;;;;;;;;;;;;;;;15.10;57.08;100844.22;4957908;28;6805;-74
2023/01/06 01:45:03;;;;;;;;;;;;;;;15.09;56.00;100843.38;4987860;28;7882;-73
2023/01/06 01:47:50;;;;;;;;;;;;;;;15.12;56.43;100842.59;4949933;28;6812;-73
2023/01/06 01:50:31;;;;;;;;;;;;;;;15.13;56.13;100834.03;4957105;28;9600;-73
2023/01/06 01:53:08;;;;;;;;;;;;;;;15.13;56.31;100834.91;4957186;28;6824;-73
2023/01/06 01:55:36;;;;;;;;;;;;;;;15.17;56.00;100835.03;4954499;28;7190;-73
2023/01/06 01:58:12;;;;;;;;;;;;;;;15.21;55.61;100834.31;4963062;28;6985;-73
2023/01/06 02:00:42;;;;;;;;;;;;;;;15.20;54.97;100827.38;4953068;28;7147;-73
2023/01/06 02:03:10;;;;;;;;;;;;;;;15.22;55.11;100823.16;4955928;28;6804;-74
2023/01/06 02:05:41;;;;;;;;;;;;;;;15.22;54.67;100817.97;4977950;28;7205;-74
2023/01/06 02:08:43;;;;;;;;;;;;;;;15.25;54.48;100818.97;4989610;28;7155;-74
2023/01/06 02:11:10;;;;;;;;;;;;;;;15.25;54.71;100823.25;4974168;28;6796;-73
2023/01/06 02:13:41;;;;;;;;;;;;;;;15.24;55.37;100829.22;4984144;28;6850;-73
2023/01/06 02:16:27;;;;;;;;;;;;;;;15.23;55.31;100819.72;4958815;28;6788;-74
2023/01/06 02:19:24;;;;;;;;;;;;;;;15.19;55.30;100820.47;4958524;28;6820;-73
2023/01/06 02:22:13;;;;;;;;;;;;;;;15.18;55.67;100817.00;4958212;28;6816;-74
2023/01/06 02:25:03;;;;;;;;;;;;;;;15.18;55.76;100803.22;4962426;28;6992;-74
2023/01/06 02:28:18;;;;;;;;;;;;;;;15.14;55.69;100804.81;4957234;28;6796;-73
2023/01/06 02:31:02;;;;;;;;;;;;;;;15.10;55.83;100805.50;4964167;28;6874;-74
2023/01/06 02:33:57;;;;;;;;;;;;;;;15.09;55.91;100796.91;4963997;28;7186;-73
2023/01/06 02:36:54;;;;;;;;;;;;;;;15.10;55.91;100797.75;4957992;28;6804;-73
2023/01/06 02:39:37;;;;;;;;;;;;;;;15.09;55.88;100794.31;4957558;28;10932;-73
2023/01/06 02:42:33;;;;;;;;;;;;;;;15.09;56.28;100794.31;4976633;28;7194;-73
2023/01/06 02:45:22;;;;;;;;;;;;;;;15.10;56.57;100787.44;4960959;28;6800;-74
2023/01/06 02:47:56;;;;;;;;;;;;;;;15.09;55.92;100783.09;4963850;28;6808;-73
2023/01/06 02:50:42;;;;;;;;;;;;;;;15.09;56.54;100765.03;4961749;28;6967;-73
2023/01/06 02:53:36;;;;;;;;;;;;;;;15.09;56.12;100760.75;4959744;28;6792;-74
2023/01/06 02:56:03;;;;;;;;;;;;;;;15.08;55.95;100759.00;4955583;28;7056;-73
2023/01/06 02:58:56;;;;;;;;;;;;;;;15.06;56.02;100764.94;4960615;28;6852;-74
2023/01/06 03:01:32;;;;;;;;;;;;;;;15.07;56.25;100777.91;4986895;28;8219;-74
2023/01/06 03:04:06;;;;;;;;;;;;;;;15.09;56.40;100775.34;4975437;28;7010;-73
2023/01/06 03:06:36;;;;;;;;;;;;;;;15.09;56.16;100759.88;4979108;28;6993;-74
2023/01/06 03:09:05;;;;;;;;;;;;;;;15.08;56.35;100764.16;4958497;28;6809;-74
2023/01/06 03:11:33;;;;;;;;;;;;;;;15.06;56.50;100760.63;4957610;28;6800;-73
2023/01/06 03:14:12;;;;;;;;;;;;;;;15.04;55.91;100754.53;4958156;28;6818;-74
2023/01/06 03:16:38;;;;;;;;;;;;;;;15.03;55.79;100752.78;4961919;28;7277;-74
2023/01/06 03:19:04;;;;;;;;;;;;;;;15.03;56.17;100750.19;4952209;28;6788;-74
2023/01/06 03:21:41;;;;;;;;;;;;;;;15.03;56.04;100750.19;4960524;28;6780;-73
2023/01/06 03:24:09;;;;;;;;;;;;;;;15.01;56.35;100757.03;4961399;28;6875;-73
2023/01/06 03:26:37;;;;;;;;;;;;;;;15.00;56.03;100737.19;4957811;28;6804;-73
2023/01/06 03:29:09;;;;;;;;;;;;;;;15.04;55.65;100746.78;4961295;28;6967;-74
2023/01/06 03:32:07;;;;;;;;;;;;;;;15.02;55.36;100727.81;4960535;28;6820;-73
2023/01/06 03:34:54;;;;;;;;;;;;;;;15.02;56.31;100729.50;4958776;28;6800;-74
2023/01/06 03:37:59;;;;;;;;;;;;;;;14.96;55.73;100735.31;4956862;28;6812;-72
2023/01/06 03:40:43;;;;;;;;;;;;;;;14.93;56.16;100735.22;4957465;28;7111;-72
2023/01/06 03:43:34;;;;;;;;;;;;;;;14.89;55.50;100729.06;4984938;28;6788;-72
2023/01/06 03:46:36;;;;;;;;;;;;;;;14.91;56.30;100731.72;4967917;28;6788;-72
2023/01/06 03:49:13;;;;;;;;;;;;;;;14.93;55.52;100725.78;4980538;28;7258;-72
2023/01/06 03:51:59;;;;;;;;;;;;;;;14.96;55.49;100722.41;4959742;28;7175;-73
2023/01/06 03:54:28;;;;;;;;;;;;;;;14.96;55.30;100723.31;4961682;28;7302;-73
2023/01/06 03:57:19;;;;;;;;;;;;;;;14.94;55.79;100735.28;4959051;28;7427;-72
2023/01/06 04:00:30;;;;;;;;;;;;;;;14.93;55.58;100730.06;4966610;28;6831;-72
2023/01/06 04:02:56;;;;;;;;;;;;;;;14.90;55.28;100728.25;4964200;28;11063;-72
2023/01/06 04:05:26;;;;;;;;;;;;;;;14.89;55.50;100731.66;4977543;28;7188;-73
2023/01/06 04:07:52;;;;;;;;;;;;;;;14.91;55.51;100721.38;4979313;28;9961;-72
2023/01/06 04:10:20;;;;;;;;;;;;;;;14.91;55.79;100718.81;4961498;28;6852;-72
2023/01/06 04:12:46;;;;;;;;;;;;;;;14.90;55.61;100717.06;4989050;28;6946;-72
2023/01/06 04:15:14;;;;;;;;;;;;;;;14.87;55.66;100717.81;4948529;28;6961;-72
2023/01/06 04:17:42;;;;;;;;;;;;;;;14.85;55.10;100730.66;4971272;28;6956;-72
2023/01/06 04:20:13;;;;;;;;;;;;;;;14.83;55.66;100718.56;4960919;28;6808;-72
2023/01/06 04:22:39;;;;;;;;;;;;;;;14.83;55.42;100722.00;4979360;28;6990;-72
2023/01/06 04:25:06;;;;;;;;;;;;;;;14.89;55.58;100729.06;4961517;28;6791;-72
2023/01/06 04:27:32;;;;;;;;;;;;;;;14.93;55.09;100727.47;4965559;28;6800;-72
2023/01/06 04:29:58;;;;;;;;;;;;;;;14.96;55.47;100712.97;4946500;28;7423;-72
2023/01/06 04:32:24;;;;;;;;;;;;;;;14.98;55.44;100721.66;4963745;28;7124;-73
2023/01/06 04:34:50;;;;;;;;;;;;;;;14.99;54.87;100717.38;4949267;28;6784;-72
2023/01/06 04:37:16;;;;;;;;;;;;;;;15.00;55.26;100703.66;4946783;28;7813;-72
2023/01/06 04:39:41;;;;;;;;;;;;;;;15.02;55.45;100711.41;4941523;28;6993;-72
2023/01/06 04:42:07;;;;;;;;;;;;;;;14.97;54.94;100695.81;4960344;28;6934;-72
2023/01/06 04:44:32;;;;;;;;;;;;;;;14.96;55.55;100699.19;4958864;28;6773;-72
2023/01/06 04:46:58;;;;;;;;;;;;;;;14.97;55.58;100690.66;4964672;28;6792;-72
2023/01/06 04:49:24;;;;;;;;;;;;;;;14.96;55.50;100705.25;4977368;28;7043;-72
2023/01/06 04:51:49;;;;;;;;;;;;;;;14.95;55.35;100702.59;4972801;28;7424;-72
2023/01/06 04:54:15;;;;;;;;;;;;;;;14.96;55.54;100696.59;4955358;28;6847;-72
2023/01/06 04:56:42;;;;;;;;;;;;;;;14.95;55.14;100688.00;4960850;28;7039;-72
2023/01/06 04:59:08;;;;;;;;;;;;;;;14.91;55.21;100688.69;4963890;28;7212;-73
2023/01/06 05:01:33;;;;;;;;;;;;;;;14.88;55.10;100678.28;4947768;28;7206;-72
2023/01/06 05:03:59;;;;;;;;;;;;;;;14.88;55.76;100673.13;4969721;28;6840;-74
2023/01/06 05:06:24;;;;;;;;;;;;;;;14.84;55.73;100666.97;4959406;28;7020;-73
2023/01/06 05:08:50;;;;;;;;;;;;;;;14.84;55.08;100666.97;4960461;28;6996;-73
2023/01/06 05:11:22;;;;;;;;;;;;;;;14.84;55.41;100682.44;4975169;28;6848;-72
2023/01/06 05:13:49;;;;;;;;;;;;;;;14.84;55.66;100685.03;4976414;28;7158;-73
2023/01/06 05:16:31;;;;;;;;;;;;;;;14.85;55.40;100684.22;4959820;28;6792;-73
2023/01/06 05:18:57;;;;;;;;;;;;;;;14.81;56.03;100682.34;4943829;28;6884;-73
2023/01/06 05:21:27;;;;;;;;;;;;;;;14.83;55.59;100680.69;4957001;28;7027;-74
2023/01/06 05:23:54;;;;;;;;;;;;;;;14.88;55.56;100692.91;4944338;28;6817;-72
2023/01/06 05:26:26;;;;;;;;;;;;;;;14.87;55.54;100684.28;4955751;28;7073;-73
2023/01/06 05:28:52;;;;;;;;;;;;;;;14.86;55.82;100691.13;4941653;28;9175;-72
2023/01/06 05:31:18;;;;;;;;;;;;;;;14.86;55.37;100672.19;4980178;28;6788;-72
2023/01/06 05:33:43;;;;;;;;;;;;;;;14.82;55.63;100678.94;4954521;28;6923;-73
2023/01/06 05:36:16;;;;;;;;;;;;;;;14.88;55.81;100687.75;4983658;28;7633;-73
2023/01/06 05:38:42;;;;;;;;;;;;;;;14.86;55.68;100688.53;4950259;28;7220;-72
2023/01/06 05:41:07;;;;;;;;;;;;;;;14.92;55.00;100682.75;4973204;28;6963;-72
2023/01/06 05:43:35;;;;;;;;;;;;;;;14.92;55.57;100676.69;4956852;28;6780;-72
2023/01/06 05:46:07;;;;;;;;;;;;;;;14.90;55.05;100679.22;4957657;28;6985;-72
2023/01/06 05:48:32;;;;;;;;;;;;;;;14.93;55.40;100684.50;4966736;28;6800;-72
2023/01/06 05:51:08;;;;;;;;;;;;;;;14.94;54.99;100682.78;4957039;28;6851;-72
2023/01/06 05:53:38;;;;;;;;;;;;;;;14.93;54.92;100674.19;4954500;28;7189;-72
2023/01/06 05:56:06;;;;;;;;;;;;;;;14.95;55.33;100675.09;4955705;28;6961;-73
2023/01/06 05:58:33;;;;;;;;;;;;;;;14.95;55.12;100676.78;4981912;28;6811;-72
2023/01/06 06:01:00;;;;;;;;;;;;;;;14.93;54.63;100671.59;4987170;28;6983;-72
2023/01/06 06:03:26;;;;;;;;;;;;;;;14.94;54.90;100669.88;4955819;28;6964;-73
2023/01/06 06:05:51;;;;;;;;;;;;;;;14.93;54.79;100662.97;4980304;28;8095;-73
2023/01/06 06:08:17;;;;;;;;;;;;;;;14.90;55.42;100658.56;4955186;28;7749;-73
2023/01/06 06:10:43;;;;;;;;;;;;;;;14.89;55.18;100663.69;4984731;28;7219;-73
2023/01/06 06:13:09;;;;;;;;;;;;;;;14.89;55.03;100658.53;4950773;28;7011;-73
2023/01/06 06:15:35;;;;;;;;;;;;;;;14.86;54.80;100654.13;4955694;28;6780;-72
2023/01/06 06:18:02;;;;;;;;;;;;;;;14.81;54.92;100650.50;4957667;28;7026;-73
2023/01/06 06:20:27;;;;;;;;;;;;;;;14.79;55.16;100647.00;4979545;28;6795;-73
2023/01/06 06:22:54;;;;;;;;;;;;;;;14.74;54.87;100648.56;4971793;28;6954;-73
2023/01/06 06:25:19;;;;;;;;;;;;;;;14.72;55.35;100656.19;4974705;28;6816;-72
2023/01/06 06:27:45;;;;;;;;;;;;;;;14.69;55.20;100656.97;4954809;28;6951;-73
2023/01/06 06:30:11;;;;;;;;;;;;;;;14.71;55.61;100662.19;4982293;28;7871;-72
2023/01/06 06:32:37;;;;;;;;;;;;;;;14.69;54.72;100653.53;4988279;28;6983;-72
2023/01/06 06:35:02;;;;;;;;;;;;;;;14.68;54.55;100656.94;4962814;28;7411;-72
2023/01/06 06:37:28;;;;;;;;;;;;;;;14.68;55.21;100665.53;4964548;28;7171;-73
2023/01/06 06:39:54;;;;;;;;;;;;;;;14.70;55.15;100652.69;4988017;28;7054;-72
2023/01/06 06:42:19;;;;;;;;;;;;;;;14.70;55.60;100647.53;4958761;28;6848;-72
2023/01/06 06:44:45;;;;;;;;;;;;;;;14.70;54.84;100655.28;4980228;28;8438;-72
2023/01/06 06:47:11;;;;;;;;;;;;;;;14.72;55.58;100666.53;4990387;28;6939;-72
2023/01/06 06:49:36;;;;;;;;;;;;;;;14.75;55.39;100653.75;4959010;28;6768;-73
2023/01/06 06:52:02;;;;;;;;;;;;;;;14.75;55.25;100660.63;4961191;28;6777;-72
2023/01/06 06:54:28;;;;;;;;;;;;;;;14.75;55.86;100663.22;4956723;28;7333;-72
2023/01/06 06:56:53;;;;;;;;;;;;;;;14.75;55.00;100652.88;4972711;28;6961;-72
2023/01/06 06:59:19;;;;;;;;;;;;;;;14.75;55.33;100656.34;4955148;28;6768;-73
2023/01/06 07:01:45;;;;;;;;;;;;;;;14.72;55.40;100666.53;4954738;28;6860;-73
2023/01/06 07:04:10;;;;;;;;;;;;;;;14.75;55.84;100653.75;4984818;28;6959;-73
2023/01/06 07:06:36;;;;;;;;;;;;;;;14.78;55.55;100655.56;4961769;28;6780;-73
2023/01/06 07:09:02;;;;;;;;;;;;;;;14.78;54.66;100646.13;4988034;28;6764;-73
2023/01/06 07:11:27;;;;;;;;;;;;;;;14.71;55.15;100647.56;4962223;28;6784;-72
2023/01/06 07:13:53;;;;;;;;;;;;;;;14.70;55.06;100643.22;4940908;28;7192;-72
2023/01/06 07:16:21;;;;;;;;;;;;;;;14.68;55.56;100644.91;4972201;28;6861;-74
2023/01/06 07:18:47;;;;;;;;;;;;;;;14.65;55.62;100657.69;4956003;28;7149;-73
2023/01/06 07:21:13;;;;;;;;;;;;;;;14.65;55.46;100654.22;4956785;28;6836;-73
2023/01/06 07:23:38;;;;;;;;;;;;;;;14.65;55.50;100654.22;4956927;28;6772;-73
2023/01/06 07:26:04;;;;;;;;;;;;;;;14.65;55.33;100656.81;4955629;28;6764;-73
2023/01/06 07:28:32;;;;;;;;;;;;;;;14.69;55.90;100651.81;4985436;28;6863;-73
2023/01/06 07:30:57;;;;;;;;;;;;;;;14.73;55.67;100663.16;4986042;28;7016;-72
2023/01/06 07:33:23;;;;;;;;;;;;;;;14.80;55.40;100659.06;4960465;28;7026;-72
2023/01/06 07:35:54;;;;;;;;;;;;;;;14.79;55.74;100663.38;4962955;28;6792;-73
2023/01/06 07:38:20;;;;;;;;;;;;;;;14.86;55.83;100664.47;4963728;28;7869;-72
2023/01/06 07:40:46;;;;;;;;;;;;;;;14.90;55.53;100665.44;4960452;28;7011;-73
2023/01/06 07:43:12;;;;;;;;;;;;;;;14.90;55.13;100671.47;4960311;28;6792;-73
2023/01/06 07:45:38;;;;;;;;;;;;;;;14.92;56.20;100675.00;4955926;28;7463;-72
2023/01/06 07:48:04;;;;;;;;;;;;;;;14.95;55.75;100669.94;4963120;28;6847;-73
2023/01/06 07:50:31;;;;;;;;;;;;;;;14.95;55.56;100680.25;4963728;28;7004;-73
2023/01/06 07:52:59;;;;;;;;;;;;;;;15.02;55.23;100685.63;4976574;28;6792;-73
2023/01/06 07:55:25;;;;;;;;;;;;;;;15.05;55.83;100693.47;4954361;28;7016;-73
2023/01/06 07:57:51;;;;;;;;;;;;;;;15.03;54.92;100688.25;4972057;28;6955;-73
2023/01/06 08:00:17;;;;;;;;;;;;;;;15.02;56.00;100698.50;4958839;28;7127;-72
2023/01/06 08:02:43;;;;;;;;;;;;;;;15.04;55.70;100699.47;4952511;28;6967;-72
2023/01/06 08:05:08;;;;;;;;;;;;;;;15.04;55.25;100705.50;4951246;28;7474;-73
2023/01/06 08:07:34;;;;;;;;;;;;;;;15.03;56.07;100705.47;4984959;28;7256;-72
2023/01/06 08:10:00;;;;;;;;;;;;;;;15.01;56.04;100705.41;4950289;28;6842;-73
2023/01/06 08:12:25;;;;;;;;;;;;;;;14.95;55.57;100693.16;4958319;28;6760;-72
2023/01/06 08:14:51;;;;;;;;;;;;;;;14.91;55.52;100708.50;4957225;28;6839;-72
2023/01/06 08:17:17;;;;;;;;;;;;;;;14.84;55.81;100713.41;4953809;28;6775;-73
2023/01/06 08:19:42;;;;;;;;;;;;;;;14.75;55.72;100713.09;4963767;28;7077;-73
2023/01/06 08:22:08;;;;;;;;;;;;;;;14.70;56.94;100715.47;4988926;28;6987;-72
2023/01/06 08:24:34;;;;;;;;;;;;;;;14.67;56.97;100717.06;4952849;28;6784;-73
2023/01/06 08:27:00;;;;;;;;;;;;;;;14.65;57.18;100721.28;4956513;28;6844;-73
2023/01/06 08:29:26;;;;;;;;;;;;;;;14.66;56.53;100723.03;4955287;28;8407;-72
2023/01/06 08:31:52;;;;;;;;;;;;;;;14.67;56.85;100729.97;4955079;28;6804;-73
2023/01/06 08:34:18;;;;;;;;;;;;;;;14.65;56.96;100722.19;4990687;28;6946;-72
2023/01/06 08:36:44;;;;;;;;;;;;;;;14.67;57.63;100736.00;4976998;28;6943;-73
2023/01/06 08:39:13;;;;;;;;;;;;;;;14.61;57.29;100733.19;4960522;28;8183;-73
2023/01/06 08:41:38;;;;;;;;;;;;;;;14.57;57.52;100734.78;4943257;28;7280;-73
2023/01/06 08:44:05;;;;;;;;;;;;;;;14.52;57.87;100744.06;4986689;28;7022;-73
2023/01/06 08:46:32;;;;;;;;;;;;;;;14.50;58.25;100740.56;4969594;28;6780;-73
2023/01/06 08:48:57;;;;;;;;;;;;;;;14.47;58.25;100742.13;4962228;28;7146;-73
2023/01/06 08:51:25;;;;;;;;;;;;;;;14.44;57.86;100732.56;4963983;28;7106;-72
2023/01/06 08:53:51;;;;;;;;;;;;;;;14.39;58.37;100739.25;4955194;28;6812;-73
2023/01/06 08:56:28;;;;;;;;;;;;;;;14.35;59.03;100747.69;4959917;28;7165;-73
2023/01/06 08:59:00;;;;;;;;;;;;;;;14.34;59.89;100743.38;4977104;28;6804;-73
2023/01/06 09:01:33;;;;;;;;;;;;;;;14.33;59.91;100757.94;4958003;28;6816;-73
2023/01/06 09:04:01;;;;;;;;;;;;;;;14.33;59.31;100751.94;4989893;28;8572;-73
2023/01/06 09:06:28;;;;;;;;;;;;;;;14.31;59.29;100754.44;4998463;28;7015;-73
2023/01/06 09:08:55;;;;;;;;;;;;;;;14.31;59.83;100757.00;4969400;28;7082;-72
2023/01/06 09:11:22;;;;;;;;;;;;;;;14.30;59.35;100753.56;4948046;28;7217;-72
2023/01/06 09:13:49;;;;;;;;;;;;;;;14.33;59.43;100759.66;4990379;28;7124;-73
2023/01/06 09:16:15;;;;;;;;;;;;;;;14.32;59.25;100765.63;4962853;28;6799;-72
2023/01/06 09:18:47;;;;;;;;;;;;;;;14.33;59.74;100765.69;4959710;28;7351;-73
2023/01/06 09:21:13;;;;;;;;;;;;;;;14.32;60.65;100770.78;4980496;28;6804;-73
2023/01/06 09:23:39;;;;;;;;;;;;;;;14.30;60.53;100756.16;4966536;28;7325;-73
2023/01/06 09:26:05;;;;;;;;;;;;;;;14.30;60.27;100775.88;4953668;28;7319;-72
2023/01/06 09:28:31;;;;;;;;;;;;;;;14.33;60.44;100769.97;4975795;28;9005;-72
2023/01/06 09:30:57;;;;;;;;;;;;;;;14.34;60.71;100759.72;4964082;28;6824;-73
2023/01/06 09:33:23;;;;;;;;;;;;;;;14.33;60.26;100780.28;4942059;28;6971;-73
2023/01/06 09:35:48;;;;;;;;;;;;;;;14.39;60.53;100798.56;4957531;28;6780;-72
2023/01/06 09:38:14;;;;;;;;;;;;;;;14.43;60.98;100787.56;4965852;28;7023;-73
2023/01/06 09:40:56;;;;;;;;;;;;;;;14.48;60.94;100785.16;4987931;28;6851;-72
2023/01/06 09:43:40;;;;;;;;;;;;;;;14.55;60.84;100782.84;4956303;28;6856;-72
2023/01/06 09:46:11;;;;;;;;;;;;;;;14.63;60.78;100797.75;4957627;28;7317;-73
2023/01/06 09:49:18;;;;;;;;;;;;;;;14.68;60.30;100793.66;4961387;28;6951;-73
2023/01/06 09:51:44;;;;;;;;;;;;;;;14.71;60.42;100793.75;4958012;28;6934;-73
2023/01/06 09:54:24;;;;;;;;;;;;;;;14.73;60.75;100799.88;4961680;28;7131;-73
2023/01/06 09:57:15;;;;;;;;;;;;;;;14.76;60.48;100805.16;4976048;28;7153;-72
2023/01/06 09:59:54;;;;;;;;;;;;;;;14.81;59.85;100806.22;4983294;28;7252;-73
2023/01/06 10:02:35;;;;;;;;;;;;;;;14.85;60.18;100809.78;4952609;28;6996;-74
2023/01/06 10:05:18;;;;;;;;;;;;;;;14.95;60.15;100809.31;4950243;28;7409;-73
2023/01/06 10:08:24;;;;;;;;;;;;;;;15.04;60.04;100816.50;4987151;28;7084;-73
2023/01/06 10:11:35;;;;;;;;;;;;;;;15.13;59.59;100811.66;4949194;28;8068;-73
2023/01/06 10:14:40;;;;;;;;;;;;;;;15.21;60.17;100816.22;4951279;28;7202;-73
2023/01/06 10:17:36;;;;;;;;;;;;;;;15.30;59.58;100810.50;4966512;28;7449;-73
2023/01/06 10:20:29;;;;;;;;;;;;;;;15.38;60.21;100809.97;4950672;28;7448;-73
2023/01/06 10:23:35;;;;;;;;;;;;;;;15.53;59.69;100811.28;4955046;28;7635;-72
2023/01/06 10:26:20;;;;;;;;;;;;;;;15.62;59.24;100815.91;4959513;28;6800;-73
2023/01/06 10:28:52;;;;;;;;;;;;;;;15.69;59.08;100821.34;4990190;28;6812;-73
2023/01/06 10:31:26;;;;;;;;;;;;;;;15.76;58.97;100817.25;4956783;28;6792;-73
2023/01/06 10:33:55;;;;;;;;;;;;;;;15.78;58.75;100810.41;4960310;28;7071;-73
2023/01/06 10:36:39;;;;;;;;;;;;;;;15.79;58.89;100808.72;4964653;28;6831;-74
2023/01/06 10:39:13;;;;;;;;;;;;;;;15.83;58.50;100816.63;4961083;28;7037;-73
2023/01/06 10:41:51;;;;;;;;;;;;;;;15.80;58.28;100806.19;4959950;28;6872;-73
2023/01/06 10:44:19;;;;;;;;;;;;;;;15.86;58.15;100809.78;4960679;28;6788;-73
2023/01/06 10:46:48;;;;;;;;;;;;;;;15.88;58.55;100795.22;4989413;28;7849;-73
2023/01/06 10:49:17;;;;;;;;;;;;;;;15.91;58.42;100806.56;4959931;28;6799;-72
2023/01/06 10:51:56;;;;;;;;;;;;;;;15.90;57.99;100802.22;4959478;28;6800;-73
2023/01/06 10:54:32;;;;;;;;;;;;;;;15.91;58.10;100803.13;4935810;28;6992;-73
2023/01/06 10:57:18;;;;;;;;;;;;;;;15.92;58.28;100805.72;4979523;28;6871;-72
2023/01/06 11:00:21;;;;;;;;;;;;;;;15.94;58.16;100804.09;4988608;28;6909;-72
2023/01/06 11:02:51;;;;;;;;;;;;;;;15.93;57.87;100804.03;4933868;28;13298;-73
2023/01/06 11:05:24;;;;;;;;;;;;;;;15.88;58.14;100797.78;4927572;28;7233;-73
2023/01/06 11:08:14;;;;;;;;;;;;;;;15.79;57.96;100803.56;4962351;28;7460;-73
2023/01/06 11:10:49;;;;;;;;;;;;;;;15.69;57.90;100799.78;4953974;28;7237;-73
2023/01/06 11:13:29;;;;;;;;;;;;;;;15.62;58.60;100800.41;4939681;28;6788;-72
2023/01/06 11:15:59;;;;;;;;;;;;;;;15.55;58.53;100794.16;4965806;28;6892;-73
2023/01/06 11:18:30;;;;;;;;;;;;;;;15.51;58.66;100805.22;4942552;28;6788;-73
2023/01/06 11:21:15;;;;;;;;;;;;;;;15.49;59.10;100806.88;4938829;28;7217;-73
2023/01/06 11:23:45;;;;;;;;;;;;;;;15.45;59.03;100815.31;4937624;28;6808;-73
2023/01/06 11:26:11;;;;;;;;;;;;;;;15.43;59.32;100817.88;4964245;28;6996;-73
2023/01/06 11:28:41;;;;;;;;;;;;;;;15.41;59.52;100817.81;4968933;28;7111;-73
2023/01/06 11:31:12;;;;;;;;;;;;;;;15.39;59.36;100806.53;4973252;28;6995;-74
2023/01/06 11:33:51;;;;;;;;;;;;;;;15.39;59.94;100795.31;4954457;28;6780;-73
2023/01/06 11:36:19;;;;;;;;;;;;;;;15.34;59.57;100791.72;4957266;28;7195;-73
2023/01/06 11:39:21;;;;;;;;;;;;;;;15.31;59.63;100796.78;4958659;28;6920;-73
2023/01/06 11:41:51;;;;;;;;;;;;;;;15.24;60.26;100795.66;4921043;28;7222;-73
2023/01/06 11:44:32;;;;;;;;;;;;;;;15.24;60.41;100799.16;4990103;28;6784;-73
2023/01/06 11:47:06;;;;;;;;;;;;;;;15.27;60.58;100791.50;4959712;28;7009;-73
2023/01/06 11:49:56;;;;;;;;;;;;;;;15.24;60.47;100783.66;4965934;28;7038;-73
2023/01/06 11:52:29;;;;;;;;;;;;;;;15.25;60.57;100787.09;4960019;28;6804;-73
2023/01/06 11:55:20;;;;;;;;;;;;;;;15.26;60.35;100794.03;4958793;28;6990;-73
2023/01/06 11:58:12;;;;;;;;;;;;;;;15.28;60.83;100793.25;4945791;28;7155;-72
2023/01/06 12:00:54;;;;;;;;;;;;;;;15.34;60.60;100783.97;4956589;28;6812;-72
2023/01/06 12:03:31;;;;;;;;;;;;;;;15.46;61.30;100786.09;4958392;28;6836;-72
2023/01/06 12:06:26;;;;;;;;;;;;;;;15.60;60.53;100784.84;4974411;28;8042;-73
2023/01/06 12:09:08;;;;;;;;;;;;;;;15.67;60.62;100783.34;4994179;28;7267;-73
2023/01/06 12:11:45;;;;;;;;;;;;;;;15.68;60.40;100783.41;4964019;28;7302;-72
2023/01/06 12:14:21;;;;;;;;;;;;;;;15.66;60.75;100772.16;4955529;28;6824;-73
2023/01/06 12:16:56;;;;;;;;;;;;;;;15.64;60.67;100770.34;4972903;28;7071;-73
2023/01/06 12:19:46;;;;;;;;;;;;;;;15.62;60.66;100778.03;4961795;28;7455;-72
2023/01/06 12:22:52;;;;;;;;;;;;;;;15.57;60.54;100774.44;4957664;28;7209;-73
2023/01/06 12:25:25;;;;;;;;;;;;;;;15.57;60.26;100771.84;4927053;28;6809;-73
2023/01/06 12:27:58;;;;;;;;;;;;;;;15.63;60.74;100779.78;4993422;28;6995;-73
2023/01/06 12:30:34;;;;;;;;;;;;;;;15.67;60.44;100775.59;4961282;28;6816;-73
2023/01/06 12:33:17;;;;;;;;;;;;;;;15.66;60.39;100779.91;4972094;28;6800;-73
2023/01/06 12:35:49;;;;;;;;;;;;;;;15.59;60.28;100777.03;4977125;28;6979;-72
2023/01/06 12:38:55;;;;;;;;;;;;;;;15.54;59.88;100777.78;4973402;28;6994;-72
2023/01/06 12:41:37;;;;;;;;;;;;;;;15.50;60.33;100783.69;4936505;28;7243;-73
2023/01/06 12:44:35;;;;;;;;;;;;;;;15.47;60.61;100777.53;4973336;28;7186;-73
2023/01/06 12:47:44;;;;;;;;;;;;;;;15.41;60.88;100776.47;4960248;28;6967;-73
2023/01/06 12:50:46;;;;;;;;;;;;;;;15.40;60.81;100772.13;4960534;28;7080;-73
2023/01/06 12:53:27;;;;;;;;;;;;;;;15.38;60.89;100773.81;4953934;28;7279;-73
2023/01/06 12:56:52;;;;;;;;;;;;;;;15.34;61.03;100777.09;4965309;28;6807;-73
2023/01/06 12:59:54;;;;;;;;;;;;;;;15.35;60.95;100771.09;4885800;29;6896;-72
2023/01/06 13:03:00;;;;;;;;;;;;;;;15.31;61.46;100776.13;4963309;28;7266;-72
2023/01/06 13:05:46;;;;;;;;;;;;;;;15.26;61.55;100773.38;4958890;28;7217;-72
2023/01/06 13:09:05;;;;;;;;;;;;;;;15.22;61.42;100771.50;4956026;28;6808;-72
2023/01/06 13:11:49;;;;;;;;;;;;;;;15.18;61.53;100778.25;4952249;28;6808;-72
2023/01/06 13:14:40;;;;;;;;;;;;;;;15.18;61.98;100775.69;4952389;28;6872;-73
2023/01/06 13:17:14;;;;;;;;;;;;;;;15.19;61.73;100771.41;4988986;28;7008;-73
2023/01/06 13:19:56;;;;;;;;;;;;;;;15.20;61.21;100770.59;4987385;28;6943;-72